Time;durP1;ratioP1;P1;durP2;ratioP2;P2;SDS_P1;SDS_P2;PMS_P1;PMS_P2;Temp;Humidity;BMP_temperature;BMP_pressure;BME280_temperature;BME280_humidity;BME280_pressure;Samples;Min_cycle;Max_cycle;Signal;HPM_P1;HPM_P2
2024/01/08 00:02:24;;;;;;;;;;;-0.90;99.90;;;;;;5105451;27;19962;-75
2024/01/08 00:04:49;;;;;;;;;;;-1.00;99.90;;;;;;5126499;27;19924;-75
2024/01/08 00:07:16;;;;;;;;;;;-0.40;99.90;;;;;;5116939;27;19927;-75
2024/01/08 00:09:42;;;;;;;;;;;-0.30;99.90;;;;;;5125429;27;19923;-76
2024/01/08 00:12:07;;;;;;;;;;;-1.00;99.90;;;;;;5127263;27;19996;-75
2024/01/08 00:14:33;;;;;;;;;;;-1.00;99.90;;;;;;5142276;27;19928;-76
2024/01/08 00:16:59;;;;;;;;;;;-0.90;99.90;;;;;;5125213;27;20374;-76
2024/01/08 00:19:24;;;;;;;;;;;0.10;99.90;;;;;;5122680;27;20026;-75
2024/01/08 00:21:50;;;;;;;;;;;-0.60;99.90;;;;;;5123937;27;19937;-75
2024/01/08 00:24:16;;;;;;;;;;;0.00;99.90;;;;;;5103163;27;19980;-76
2024/01/08 00:26:42;;;;;;;;;;;-0.90;99.90;;;;;;5109511;27;19923;-75
2024/01/08 00:29:08;;;;;;;;;;;-0.70;99.90;;;;;;5122904;27;19933;-75
2024/01/08 00:31:33;;;;;;;;;;;-0.80;99.90;;;;;;5112802;27;20370;-76
2024/01/08 00:33:59;;;;;;;;;;;-0.80;99.90;;;;;;5123223;27;19984;-76
2024/01/08 00:36:28;;;;;;;;;;;-0.80;99.90;;;;;;5141442;27;19942;-75
2024/01/08 00:38:54;;;;;;;;;;;-0.80;99.90;;;;;;5140933;27;19993;-75
2024/01/08 00:41:20;;;;;;;;;;;0.00;99.90;;;;;;5123059;27;19978;-76
2024/01/08 00:43:46;;;;;;;;;;;-0.70;99.90;;;;;;5108655;27;19971;-76
2024/01/08 00:46:12;;;;;;;;;;;-0.50;99.90;;;;;;5126155;27;20001;-75
2024/01/08 00:48:39;;;;;;;;;;;-0.10;99.90;;;;;;5124896;27;20022;-75
2024/01/08 00:51:04;;;;;;;;;;;-0.70;99.90;;;;;;5123906;27;19927;-75
2024/01/08 00:53:30;;;;;;;;;;;-0.80;99.90;;;;;;5126739;27;19946;-76
2024/01/08 00:55:56;;;;;;;;;;;-0.80;99.90;;;;;;5106963;27;19928;-75
2024/01/08 00:58:21;;;;;;;;;;;0.00;99.90;;;;;;5125978;27;19931;-75
2024/01/08 01:00:47;;;;;;;;;;;-0.80;99.90;;;;;;5145021;27;19934;-76
2024/01/08 01:03:12;;;;;;;;;;;0.40;99.90;;;;;;5131468;27;19929;-75
2024/01/08 01:05:39;;;;;;;;;;;0.20;99.90;;;;;;5108748;27;19934;-75
2024/01/08 01:08:05;;;;;;;;;;;-0.90;99.90;;;;;;5130997;27;20017;-75
2024/01/08 01:10:31;;;;;;;;;;;-0.90;99.90;;;;;;5110780;27;20006;-75
2024/01/08 01:12:56;;;;;;;;;;;0.50;99.90;;;;;;5126336;27;20329;-75
2024/01/08 01:15:22;;;;;;;;;;;-0.80;99.90;;;;;;5128529;27;20027;-76
2024/01/08 01:17:48;;;;;;;;;;;-0.60;99.90;;;;;;5128651;27;19927;-75
2024/01/08 01:20:13;;;;;;;;;;;-0.70;99.90;;;;;;5119684;27;20047;-75
2024/01/08 01:22:39;;;;;;;;;;;-0.80;99.90;;;;;;5131156;27;19934;-75
2024/01/08 01:25:05;;;;;;;;;;;-0.80;99.90;;;;;;5126458;27;19934;-75
2024/01/08 01:27:31;;;;;;;;;;;-1.60;99.90;;;;;;5129565;27;20459;-75
2024/01/08 01:29:56;;;;;;;;;;;0.00;99.90;;;;;;5129988;27;20005;-75
2024/01/08 01:32:22;;;;;;;;;;;-0.80;99.90;;;;;;5146173;27;20278;-76
2024/01/08 01:34:47;;;;;;;;;;;-0.70;99.90;;;;;;5128121;27;19938;-76
2024/01/08 01:37:13;;;;;;;;;;;0.30;99.90;;;;;;5126666;27;20017;-76
2024/01/08 01:39:39;;;;;;;;;;;-0.90;99.90;;;;;;5143076;27;20080;-75
2024/01/08 01:42:04;;;;;;;;;;;-0.80;99.90;;;;;;5110069;27;19931;-75
2024/01/08 01:44:30;;;;;;;;;;;-0.70;99.90;;;;;;5113578;27;20368;-75
2024/01/08 01:46:56;;;;;;;;;;;0.30;99.90;;;;;;5111314;27;20258;-76
2024/01/08 01:49:23;;;;;;;;;;;-0.70;99.90;;;;;;5147075;27;19973;-76
2024/01/08 01:51:48;;;;;;;;;;;-0.80;99.90;;;;;;5131014;27;19931;-76
2024/01/08 01:54:15;;;;;;;;;;;0.80;99.90;;;;;;5130551;27;19930;-75
2024/01/08 01:56:41;;;;;;;;;;;-0.80;99.90;;;;;;5129254;27;19933;-75
2024/01/08 01:59:07;;;;;;;;;;;-0.70;99.90;;;;;;5128343;27;19911;-76
2024/01/08 02:01:34;;;;;;;;;;;-0.80;99.90;;;;;;5110892;27;20026;-76
2024/01/08 02:04:03;;;;;;;;;;;0.00;99.90;;;;;;5146105;27;19938;-76
2024/01/08 02:06:29;;;;;;;;;;;-0.70;99.90;;;;;;5130414;27;20026;-75
2024/01/08 02:08:55;;;;;;;;;;;-0.70;99.90;;;;;;5128993;27;20543;-76
2024/01/08 02:11:21;;;;;;;;;;;-0.70;99.90;;;;;;5110635;27;19931;-74
2024/01/08 02:13:50;;;;;;;;;;;0.90;99.90;;;;;;5129815;27;19923;-75
2024/01/08 02:16:17;;;;;;;;;;;-0.90;99.90;;;;;;5112339;27;19931;-75
2024/01/08 02:18:43;;;;;;;;;;;0.70;99.90;;;;;;5130924;27;19941;-75
2024/01/08 02:21:09;;;;;;;;;;;-0.80;99.90;;;;;;5129858;27;19931;-74
2024/01/08 02:23:34;;;;;;;;;;;0.20;99.90;;;;;;5128247;27;20324;-76
2024/01/08 02:26:00;;;;;;;;;;;-0.80;99.90;;;;;;5126605;27;19934;-75
2024/01/08 02:28:27;;;;;;;;;;;0.10;99.90;;;;;;5127466;27;19935;-75
2024/01/08 02:30:55;;;;;;;;;;;-0.80;99.90;;;;;;5126461;27;19938;-76
2024/01/08 02:33:21;;;;;;;;;;;0.90;99.90;;;;;;5113252;27;19924;-76
2024/01/08 02:35:47;;;;;;;;;;;-0.80;99.90;;;;;;5130519;27;20001;-75
2024/01/08 02:38:13;;;;;;;;;;;0.40;99.90;;;;;;5127140;27;20378;-74
2024/01/08 02:40:41;;;;;;;;;;;0.50;99.90;;;;;;5127624;27;19923;-74
2024/01/08 02:43:06;;;;;;;;;;;-0.10;99.90;;;;;;5112532;27;19927;-75
2024/01/08 02:45:32;;;;;;;;;;;-1.10;99.90;;;;;;5129016;27;20063;-75
2024/01/08 02:47:58;;;;;;;;;;;0.00;99.90;;;;;;5116221;27;19973;-75
2024/01/08 02:50:23;;;;;;;;;;;-0.10;99.90;;;;;;5100970;27;19958;-75
2024/01/08 02:52:49;;;;;;;;;;;-1.30;99.90;;;;;;5129788;27;19923;-75
2024/01/08 02:55:14;;;;;;;;;;;-0.10;99.90;;;;;;5130191;27;19934;-75
2024/01/08 02:57:40;;;;;;;;;;;-1.40;99.90;;;;;;5100910;27;19958;-75
2024/01/08 03:00:06;;;;;;;;;;;-1.50;99.90;;;;;;5128961;27;20029;-75
2024/01/08 03:02:38;;;;;;;;;;;-1.50;99.90;;;;;;5113949;27;20432;-74
2024/01/08 03:05:07;;;;;;;;;;;-1.60;99.90;;;;;;5129999;27;19950;-75
2024/01/08 03:07:33;;;;;;;;;;;-1.60;99.90;;;;;;5128641;27;20004;-75
2024/01/08 03:09:59;;;;;;;;;;;-1.60;99.90;;;;;;5126568;27;20011;-75
2024/01/08 03:12:31;;;;;;;;;;;-1.60;99.90;;;;;;5128018;27;19968;-76
2024/01/08 03:14:57;;;;;;;;;;;-1.00;99.90;;;;;;5125411;27;20018;-75
2024/01/08 03:17:23;;;;;;;;;;;-1.70;99.90;;;;;;5128594;27;20081;-75
2024/01/08 03:19:48;;;;;;;;;;;-1.80;99.90;;;;;;5109539;27;20038;-76
2024/01/08 03:22:14;;;;;;;;;;;-1.70;99.90;;;;;;5126243;27;19923;-75
2024/01/08 03:24:40;;;;;;;;;;;-0.80;99.90;;;;;;5126088;27;20633;-75
2024/01/08 03:27:05;;;;;;;;;;;-0.30;99.90;;;;;;5128824;27;19926;-75
2024/01/08 03:29:39;;;;;;;;;;;-1.80;99.90;;;;;;5127032;27;20226;-75
2024/01/08 03:32:05;;;;;;;;;;;-1.50;99.90;;;;;;5145737;27;19977;-75
2024/01/08 03:34:31;;;;;;;;;;;-1.80;99.90;;;;;;5126639;27;19974;-76
2024/01/08 03:36:56;;;;;;;;;;;-1.80;99.90;;;;;;5111169;27;19970;-75
2024/01/08 03:39:28;;;;;;;;;;;-1.50;99.90;;;;;;5128223;27;19975;-75
2024/01/08 03:41:55;;;;;;;;;;;-1.70;99.90;;;;;;5110453;27;19923;-76
2024/01/08 03:44:21;;;;;;;;;;;0.40;99.90;;;;;;5111606;27;19972;-76
2024/01/08 03:46:47;;;;;;;;;;;-1.60;99.90;;;;;;5127334;27;19934;-76
2024/01/08 03:49:14;;;;;;;;;;;-1.60;99.90;;;;;;5126742;27;19927;-74
2024/01/08 03:51:40;;;;;;;;;;;-2.10;99.90;;;;;;5143783;27;19927;-74
2024/01/08 03:54:05;;;;;;;;;;;-1.60;99.90;;;;;;5126806;27;19923;-75
2024/01/08 03:56:31;;;;;;;;;;;-1.60;99.90;;;;;;5125483;27;19923;-75
2024/01/08 03:58:56;;;;;;;;;;;-1.50;99.90;;;;;;5113172;27;19931;-74
2024/01/08 04:01:22;;;;;;;;;;;-1.40;99.90;;;;;;5127616;27;19946;-76
2024/01/08 04:03:48;;;;;;;;;;;0.50;99.90;;;;;;5146121;27;20099;-75
2024/01/08 04:06:16;;;;;;;;;;;-1.40;99.90;;;;;;5127543;27;19927;-75
2024/01/08 04:08:42;;;;;;;;;;;-1.40;99.90;;;;;;5147558;27;20323;-75
2024/01/08 04:11:08;;;;;;;;;;;-0.80;99.90;;;;;;5128382;27;19931;-75
2024/01/08 04:13:37;;;;;;;;;;;-1.40;99.90;;;;;;5128877;27;19934;-74
2024/01/08 04:16:02;;;;;;;;;;;-1.40;99.90;;;;;;5108375;27;19980;-75
2024/01/08 04:18:28;;;;;;;;;;;-1.40;99.90;;;;;;5146996;27;19935;-74
2024/01/08 04:20:54;;;;;;;;;;;-1.30;99.90;;;;;;5129871;27;19927;-75
2024/01/08 04:23:19;;;;;;;;;;;-1.40;99.90;;;;;;5129308;27;19923;-75
2024/01/08 04:25:45;;;;;;;;;;;-0.70;99.90;;;;;;5126918;27;20346;-75
2024/01/08 04:28:11;;;;;;;;;;;-1.40;99.90;;;;;;5111516;27;19983;-75
2024/01/08 04:30:36;;;;;;;;;;;-1.30;99.90;;;;;;5128463;27;19980;-75
2024/01/08 04:33:02;;;;;;;;;;;-0.90;99.90;;;;;;5133251;27;19923;-74
2024/01/08 04:35:28;;;;;;;;;;;-1.30;99.90;;;;;;5127485;27;20026;-75
2024/01/08 04:37:59;;;;;;;;;;;-0.40;99.90;;;;;;5127779;27;19926;-75
2024/01/08 04:40:25;;;;;;;;;;;-1.10;99.90;;;;;;5129409;27;20373;-76
2024/01/08 04:42:51;;;;;;;;;;;-1.30;99.90;;;;;;5113127;27;19923;-75
2024/01/08 04:45:16;;;;;;;;;;;-1.20;99.90;;;;;;5126608;27;19931;-75
2024/01/08 04:47:42;;;;;;;;;;;-1.30;99.90;;;;;;5128120;27;19931;-75
2024/01/08 04:50:08;;;;;;;;;;;-1.30;99.90;;;;;;5129251;27;20123;-75
2024/01/08 04:52:39;;;;;;;;;;;-1.30;99.90;;;;;;5126435;27;20150;-75
2024/01/08 04:55:05;;;;;;;;;;;-1.20;99.90;;;;;;5150115;27;19931;-75
2024/01/08 04:57:31;;;;;;;;;;;-1.20;99.90;;;;;;5129496;27;20017;-75
2024/01/08 04:59:57;;;;;;;;;;;0.30;99.90;;;;;;5113128;27;20347;-76
2024/01/08 05:02:22;;;;;;;;;;;-1.20;99.90;;;;;;5131682;27;19968;-76
2024/01/08 05:04:48;;;;;;;;;;;0.20;99.90;;;;;;5148228;27;19978;-75
2024/01/08 05:07:13;;;;;;;;;;;-0.70;99.90;;;;;;5132032;27;19997;-75
2024/01/08 05:09:39;;;;;;;;;;;0.60;99.90;;;;;;5111823;27;19927;-75
2024/01/08 05:12:05;;;;;;;;;;;-1.30;99.90;;;;;;5132751;27;19927;-75
2024/01/08 05:14:30;;;;;;;;;;;-3.10;99.90;;;;;;5110338;27;19927;-75
2024/01/08 05:16:57;;;;;;;;;;;-1.10;99.90;;;;;;5128022;27;19937;-75
2024/01/08 05:19:22;;;;;;;;;;;-1.10;99.90;;;;;;5128703;27;19923;-76
2024/01/08 05:21:48;;;;;;;;;;;-0.50;99.90;;;;;;5114439;27;19930;-76
2024/01/08 05:24:13;;;;;;;;;;;-0.60;99.90;;;;;;5120515;27;19924;-76
2024/01/08 05:26:39;;;;;;;;;;;-0.40;99.90;;;;;;5129808;27;20305;-75
2024/01/08 05:29:05;;;;;;;;;;;0.80;99.90;;;;;;5145906;27;19933;-76
2024/01/08 05:31:30;;;;;;;;;;;-1.00;99.90;;;;;;5130377;27;19926;-75
2024/01/08 05:33:56;;;;;;;;;;;1.20;99.90;;;;;;5127792;27;19934;-76
2024/01/08 05:36:21;;;;;;;;;;;0.90;99.90;;;;;;5129432;27;20339;-75
2024/01/08 05:38:47;;;;;;;;;;;0.40;99.90;;;;;;5130769;27;19969;-75
2024/01/08 05:41:13;;;;;;;;;;;-0.90;99.90;;;;;;5131936;27;20016;-75
2024/01/08 05:43:38;;;;;;;;;;;-1.10;99.90;;;;;;5130238;27;19923;-75
2024/01/08 05:46:05;;;;;;;;;;;-1.00;99.90;;;;;;5130558;27;19926;-75
2024/01/08 05:48:40;;;;;;;;;;;-1.00;99.90;;;;;;5129082;27;19937;-75
2024/01/08 05:51:07;;;;;;;;;;;0.20;99.90;;;;;;5131857;27;19995;-75
2024/01/08 05:53:32;;;;;;;;;;;-1.10;99.90;;;;;;5130284;27;19923;-75
2024/01/08 05:55:58;;;;;;;;;;;1.00;99.90;;;;;;5147077;27;20137;-75
2024/01/08 05:58:24;;;;;;;;;;;-0.70;99.90;;;;;;5113065;27;19923;-75
2024/01/08 06:00:51;;;;;;;;;;;-1.00;99.90;;;;;;5126918;27;19984;-78
2024/01/08 06:03:17;;;;;;;;;;;-0.40;99.90;;;;;;5147559;27;20015;-77
2024/01/08 06:05:43;;;;;;;;;;;0.20;99.90;;;;;;5114783;27;19931;-78
2024/01/08 06:08:08;;;;;;;;;;;-1.00;99.90;;;;;;5130464;27;19931;-78
2024/01/08 06:10:38;;;;;;;;;;;-1.00;99.90;;;;;;5149315;27;20322;-77
2024/01/08 06:13:09;;;;;;;;;;;0.20;99.90;;;;;;5115655;27;19931;-77
2024/01/08 06:15:36;;;;;;;;;;;-1.00;99.90;;;;;;5112881;27;19927;-77
2024/01/08 06:18:02;;;;;;;;;;;-0.80;99.90;;;;;;5147246;27;19934;-77
2024/01/08 06:20:27;;;;;;;;;;;-0.90;99.90;;;;;;5108644;27;20296;-77
2024/01/08 06:22:53;;;;;;;;;;;0.50;99.90;;;;;;5115617;27;19970;-81
2024/01/08 06:25:19;;;;;;;;;;;0.40;99.90;;;;;;5125668;27;19923;-77
2024/01/08 06:27:44;;;;;;;;;;;-0.70;99.90;;;;;;5128747;27;19923;-76
2024/01/08 06:30:10;;;;;;;;;;;-0.90;99.90;;;;;;5127156;27;19931;-76
2024/01/08 06:32:36;;;;;;;;;;;-1.00;99.40;;;;;;5129529;27;19931;-76
2024/01/08 06:35:02;;;;;;;;;;;0.30;99.50;;;;;;5127539;27;20038;-75
2024/01/08 06:37:28;;;;;;;;;;;-1.00;99.00;;;;;;5112622;27;20009;-75
2024/01/08 06:39:54;;;;;;;;;;;-0.60;98.90;;;;;;5110375;27;20440;-76
2024/01/08 06:42:19;;;;;;;;;;;-0.10;99.00;;;;;;5112974;27;19919;-79
2024/01/08 06:44:45;;;;;;;;;;;-1.10;98.40;;;;;;5125566;27;19927;-79
2024/01/08 06:47:10;;;;;;;;;;;-1.10;98.30;;;;;;5128709;27;20367;-77
2024/01/08 06:49:36;;;;;;;;;;;-0.90;98.30;;;;;;5128798;27;20014;-76
2024/01/08 06:52:03;;;;;;;;;;;-1.20;98.00;;;;;;5113823;27;20081;-80
2024/01/08 06:54:28;;;;;;;;;;;-1.30;98.10;;;;;;5129695;27;19927;-82
2024/01/08 06:56:54;;;;;;;;;;;-0.60;98.40;;;;;;5128451;27;19933;-80
2024/01/08 06:59:20;;;;;;;;;;;-0.50;98.50;;;;;;5097351;27;20378;-81
2024/01/08 07:01:45;;;;;;;;;;;-1.30;98.10;;;;;;5103766;27;19927;-81
2024/01/08 07:04:11;;;;;;;;;;;-1.40;98.20;;;;;;5108422;27;19931;-79
2024/01/08 07:06:36;;;;;;;;;;;-1.70;98.20;;;;;;5109117;27;19971;-79
2024/01/08 07:09:02;;;;;;;;;;;-1.30;98.20;;;;;;5128945;27;20530;-80
2024/01/08 07:11:28;;;;;;;;;;;-0.60;98.40;;;;;;5110825;27;19976;-80
2024/01/08 07:13:54;;;;;;;;;;;-0.40;98.20;;;;;;5143853;27;20447;-77
2024/01/08 07:16:20;;;;;;;;;;;-0.90;98.20;;;;;;5124870;27;19923;-78
2024/01/08 07:18:45;;;;;;;;;;;-1.60;97.90;;;;;;5111832;27;19927;-79
2024/01/08 07:21:16;;;;;;;;;;;-1.60;97.90;;;;;;5127557;27;19935;-79
2024/01/08 07:23:42;;;;;;;;;;;-0.30;98.30;;;;;;5110066;27;20420;-77
2024/01/08 07:26:14;;;;;;;;;;;-1.40;97.90;;;;;;5124027;27;19956;-76
2024/01/08 07:28:42;;;;;;;;;;;-0.80;98.40;;;;;;5113695;27;19927;-76
2024/01/08 07:31:08;;;;;;;;;;;-1.70;98.10;;;;;;5108856;27;19931;-76
2024/01/08 07:33:41;;;;;;;;;;;-2.10;98.10;;;;;;5125904;27;19923;-76
2024/01/08 07:36:07;;;;;;;;;;;-0.90;98.50;;;;;;5095234;27;19927;-77
2024/01/08 07:38:33;;;;;;;;;;;-2.00;98.20;;;;;;5113229;27;19923;-77
2024/01/08 07:40:59;;;;;;;;;;;-1.80;98.50;;;;;;5145946;27;20206;-77
2024/01/08 07:43:27;;;;;;;;;;;-2.00;98.50;;;;;;5129883;27;20007;-77
2024/01/08 07:45:53;;;;;;;;;;;-1.80;98.90;;;;;;5120070;27;20045;-77
2024/01/08 07:48:25;;;;;;;;;;;-1.70;98.80;;;;;;5126156;27;19923;-77
2024/01/08 07:50:50;;;;;;;;;;;-1.80;98.70;;;;;;5115947;27;19927;-77
2024/01/08 07:53:16;;;;;;;;;;;-0.10;99.30;;;;;;5128310;27;20438;-77
2024/01/08 07:55:45;;;;;;;;;;;-2.00;98.90;;;;;;5129361;27;19934;-77
2024/01/08 07:58:13;;;;;;;;;;;-1.10;99.20;;;;;;5115686;27;19923;-77
2024/01/08 08:00:40;;;;;;;;;;;-1.40;99.20;;;;;;5126498;27;19934;-76
2024/01/08 08:03:05;;;;;;;;;;;-1.90;99.20;;;;;;5113039;27;20041;-76
2024/01/08 08:05:31;;;;;;;;;;;-1.70;99.40;;;;;;5127169;27;20005;-77
2024/01/08 08:07:56;;;;;;;;;;;-0.60;99.70;;;;;;5110217;27;19927;-77
2024/01/08 08:10:28;;;;;;;;;;;-0.40;99.80;;;;;;5128462;27;19933;-76
2024/01/08 08:12:54;;;;;;;;;;;-1.70;99.50;;;;;;5112045;27;20045;-80
2024/01/08 08:15:21;;;;;;;;;;;-1.90;99.60;;;;;;5113622;27;19927;-79
2024/01/08 08:17:46;;;;;;;;;;;-2.00;99.60;;;;;;5110751;27;20001;-79
2024/01/08 08:20:12;;;;;;;;;;;-2.00;99.70;;;;;;5147286;27;20017;-78
2024/01/08 08:22:37;;;;;;;;;;;-1.30;99.90;;;;;;5111041;27;19949;-74
2024/01/08 08:25:03;;;;;;;;;;;-1.00;99.90;;;;;;5133681;27;20017;-75
2024/01/08 08:27:29;;;;;;;;;;;-1.90;99.90;;;;;;5134771;27;19934;-77
2024/01/08 08:29:55;;;;;;;;;;;-1.80;99.90;;;;;;5136548;27;20413;-75
2024/01/08 08:32:22;;;;;;;;;;;0.30;99.90;;;;;;5132451;27;19982;-77
2024/01/08 08:34:48;;;;;;;;;;;-1.50;99.90;;;;;;5153393;27;19934;-78
2024/01/08 08:37:14;;;;;;;;;;;-1.80;99.90;;;;;;5131708;27;19929;-77
2024/01/08 08:39:40;;;;;;;;;;;-0.90;99.90;;;;;;5154087;27;20006;-80
2024/01/08 08:42:06;;;;;;;;;;;-1.50;99.90;;;;;;5137597;27;19927;-80
2024/01/08 08:44:32;;;;;;;;;;;-1.50;99.90;;;;;;5135071;27;20014;-80
2024/01/08 08:46:58;;;;;;;;;;;-0.10;99.90;;;;;;5138293;27;20011;-80
2024/01/08 08:49:25;;;;;;;;;;;-1.70;99.90;;;;;;5155208;27;19927;-79
2024/01/08 08:51:51;;;;;;;;;;;-1.60;99.90;;;;;;5119893;27;19927;-77
2024/01/08 08:54:18;;;;;;;;;;;-1.60;99.90;;;;;;5116227;27;19927;-77
2024/01/08 08:56:44;;;;;;;;;;;-1.10;99.90;;;;;;5135846;27;19927;-79
2024/01/08 08:59:09;;;;;;;;;;;-1.50;99.90;;;;;;5116669;27;19923;-79
2024/01/08 09:01:41;;;;;;;;;;;0.50;99.90;;;;;;5137322;27;19934;-78
2024/01/08 09:04:07;;;;;;;;;;;-1.00;99.90;;;;;;5116711;27;19927;-80
2024/01/08 09:06:35;;;;;;;;;;;-0.70;99.90;;;;;;5135594;27;19984;-80
2024/01/08 09:09:02;;;;;;;;;;;-0.40;99.90;;;;;;5136265;27;19927;-79
2024/01/08 09:11:28;;;;;;;;;;;-0.80;99.90;;;;;;5133006;27;19962;-78
2024/01/08 09:13:53;;;;;;;;;;;-1.10;99.90;;;;;;5132828;27;20289;-79
2024/01/08 09:16:20;;;;;;;;;;;-1.20;99.90;;;;;;5118081;27;20323;-80
2024/01/08 09:18:46;;;;;;;;;;;-1.00;99.90;;;;;;5132550;27;19926;-78
2024/01/08 09:21:18;;;;;;;;;;;-0.70;99.90;;;;;;5151576;27;19927;-76
2024/01/08 09:23:46;;;;;;;;;;;-0.70;99.90;;;;;;5153049;27;19927;-78
2024/01/08 09:26:12;;;;;;;;;;;-0.80;99.90;;;;;;5137743;27;20396;-76
2024/01/08 09:28:38;;;;;;;;;;;-0.90;99.90;;;;;;5132697;27;20297;-76
2024/01/08 09:31:04;;;;;;;;;;;-0.70;99.90;;;;;;5132149;27;19923;-79
2024/01/08 09:33:29;;;;;;;;;;;-0.80;99.90;;;;;;5118520;27;19935;-79
2024/01/08 09:35:55;;;;;;;;;;;-0.70;99.90;;;;;;5127891;27;20374;-76
2024/01/08 09:38:21;;;;;;;;;;;0.30;99.90;;;;;;5147647;27;20720;-78
2024/01/08 09:40:47;;;;;;;;;;;-0.80;99.90;;;;;;5127493;27;20393;-77
2024/01/08 09:43:16;;;;;;;;;;;-0.80;99.90;;;;;;5129307;27;19923;-76
2024/01/08 09:45:57;;;;;;;;;;;1.40;99.90;;;;;;5145974;27;19956;-76
2024/01/08 09:48:42;;;;;;;;;;;-0.50;99.90;;;;;;5104546;27;19989;-78
2024/01/08 09:51:30;;;;;;;;;;;-0.90;99.90;;;;;;5101293;27;19923;-78
2024/01/08 09:53:58;;;;;;;;;;;-0.20;99.90;;;;;;5078471;27;19927;-77
2024/01/08 09:56:24;;;;;;;;;;;0.60;99.90;;;;;;5127156;27;20402;-75
2024/01/08 09:58:50;;;;;;;;;;;0.20;99.90;;;;;;5125636;27;19934;-77
2024/01/08 10:04:53;;;;;;;;;;;-0.40;99.90;;;;;;5096989;27;19928;-78
2024/01/08 10:08:21;;;;;;;;;;;0.70;99.90;;;;;;5104489;27;20077;-75
2024/01/08 10:10:31;;;;;;;;;;;-0.20;99.90;;;;;;5114335;27;20406;-77
2024/01/08 10:13:03;;;;;;;;;;;0.00;99.70;;;;;;5127357;27;19927;-79
2024/01/08 10:15:29;;;;;;;;;;;-0.50;99.50;;;;;;5114471;27;19927;-78
2024/01/08 10:17:55;;;;;;;;;;;-0.50;99.10;;;;;;5144129;27;21013;-77
2024/01/08 10:20:21;;;;;;;;;;;0.80;99.00;;;;;;5125034;27;20338;-78
2024/01/08 10:23:02;;;;;;;;;;;-0.40;98.50;;;;;;5127612;27;20038;-77
2024/01/08 10:25:28;;;;;;;;;;;-1.00;98.10;;;;;;5125952;27;20297;-79
2024/01/08 10:27:54;;;;;;;;;;;0.00;98.00;;;;;;5123778;27;19927;-77
2024/01/08 10:30:20;;;;;;;;;;;0.00;97.90;;;;;;5127798;27;20285;-76
2024/01/08 10:32:46;;;;;;;;;;;0.10;97.90;;;;;;5145585;27;19930;-77
2024/01/08 10:35:12;;;;;;;;;;;0.00;97.80;;;;;;5113140;27;19926;-77
2024/01/08 10:37:40;;;;;;;;;;;0.20;97.80;;;;;;5130377;27;20449;-77
2024/01/08 10:40:08;;;;;;;;;;;0.20;97.30;;;;;;5128231;27;19934;-77
2024/01/08 10:42:34;;;;;;;;;;;0.10;96.90;;;;;;5130435;27;19981;-77
2024/01/08 10:45:00;;;;;;;;;;;1.60;97.10;;;;;;5108871;27;19966;-75
2024/01/08 10:47:26;;;;;;;;;;;1.00;96.50;;;;;;5093741;27;19923;-76
2024/01/08 10:49:55;;;;;;;;;;;0.40;95.80;;;;;;5118823;27;19923;-77
2024/01/08 10:52:25;;;;;;;;;;;1.20;96.00;;;;;;5130948;27;19983;-81
2024/01/08 10:54:58;;;;;;;;;;;0.10;95.00;;;;;;5113063;27;19934;-79
2024/01/08 10:57:35;;;;;;;;;;;0.30;94.90;;;;;;5146939;27;20386;-83
2024/01/08 11:00:01;;;;;;;;;;;0.30;94.60;;;;;;5129255;27;20055;-80
2024/01/08 11:02:27;;;;;;;;;;;0.60;95.10;;;;;;5128457;27;19911;-79
2024/01/08 11:05:03;;;;;;;;;;;0.70;94.60;;;;;;5129492;27;19931;-80
2024/01/08 11:07:33;;;;;;;;;;;0.50;93.40;;;;;;5127486;27;19980;-79
2024/01/08 11:10:05;;;;;;;;;;;0.40;92.80;;;;;;5128550;27;20357;-80
2024/01/08 11:12:31;;;;;;;;;;;0.60;93.10;;;;;;5114363;27;19975;-80
2024/01/08 11:15:00;;;;;;;;;;;0.80;93.40;;;;;;5130402;27;19931;-77
2024/01/08 11:17:27;;;;;;;;;;;0.60;92.80;;;;;;5145745;27;19923;-76
2024/01/08 11:19:54;;;;;;;;;;;0.50;91.50;;;;;;5109345;27;20330;-76
2024/01/08 11:22:20;;;;;;;;;;;0.60;91.60;;;;;;5121583;27;20011;-76
2024/01/08 11:24:47;;;;;;;;;;;1.30;91.00;;;;;;5119997;27;20324;-75
2024/01/08 11:27:16;;;;;;;;;;;1.80;91.90;;;;;;5122649;27;19930;-77
2024/01/08 11:30:02;;;;;;;;;;;0.60;90.90;;;;;;5143339;27;19948;-77
2024/01/08 11:32:45;;;;;;;;;;;0.60;91.10;;;;;;5126404;27;19927;-76
2024/01/08 11:35:13;;;;;;;;;;;0.70;91.70;;;;;;5145177;27;19997;-76
2024/01/08 11:37:43;;;;;;;;;;;0.90;91.30;;;;;;5124017;27;20655;-76
2024/01/08 11:40:14;;;;;;;;;;;0.90;90.30;;;;;;5126073;27;19934;-76
2024/01/08 11:42:46;;;;;;;;;;;1.00;90.50;;;;;;5125597;27;20480;-76
2024/01/08 11:45:12;;;;;;;;;;;1.10;88.50;;;;;;5128431;27;19950;-75
2024/01/08 11:47:38;;;;;;;;;;;2.60;87.00;;;;;;5135785;27;20373;-76
2024/01/08 11:50:05;;;;;;;;;;;1.20;86.20;;;;;;5126173;27;19923;-75
2024/01/08 11:52:32;;;;;;;;;;;1.20;86.90;;;;;;5112521;27;19972;-76
2024/01/08 11:54:57;;;;;;;;;;;1.10;86.30;;;;;;5124820;27;19927;-76
2024/01/08 11:57:23;;;;;;;;;;;2.60;85.10;;;;;;5127242;27;20319;-76
2024/01/08 11:59:52;;;;;;;;;;;1.10;84.50;;;;;;5124669;27;19975;-76
2024/01/08 12:02:23;;;;;;;;;;;1.10;86.20;;;;;;5124611;27;20076;-78
2024/01/08 12:04:53;;;;;;;;;;;1.20;83.60;;;;;;5124935;27;19931;-76
2024/01/08 12:07:18;;;;;;;;;;;1.30;81.10;;;;;;5109689;27;21667;-77
2024/01/08 12:09:47;;;;;;;;;;;1.20;80.50;;;;;;5125819;27;19923;-76
2024/01/08 12:12:12;;;;;;;;;;;1.20;80.10;;;;;;5144242;27;19927;-76
2024/01/08 12:14:40;;;;;;;;;;;1.10;82.20;;;;;;5124119;27;19938;-76
2024/01/08 12:17:06;;;;;;;;;;;1.20;84.80;;;;;;5122597;27;20047;-76
2024/01/08 12:19:52;;;;;;;;;;;1.40;81.20;;;;;;5126047;27;20580;-76
2024/01/08 12:22:18;;;;;;;;;;;1.10;83.20;;;;;;5124253;27;20377;-75
2024/01/08 12:24:45;;;;;;;;;;;1.20;80.60;;;;;;5143362;27;19923;-75
2024/01/08 12:27:12;;;;;;;;;;;2.10;79.30;;;;;;5122174;27;19934;-76
2024/01/08 12:29:38;;;;;;;;;;;1.50;76.90;;;;;;5124841;27;20007;-77
2024/01/08 12:32:04;;;;;;;;;;;1.20;75.20;;;;;;5109427;27;20034;-76
2024/01/08 12:34:30;;;;;;;;;;;1.10;73.50;;;;;;5121341;27;20015;-76
2024/01/08 12:36:57;;;;;;;;;;;2.10;76.40;;;;;;5105320;27;19927;-76
2024/01/08 12:39:24;;;;;;;;;;;1.20;82.00;;;;;;5126034;27;19934;-78
2024/01/08 12:41:55;;;;;;;;;;;1.20;78.20;;;;;;5123278;27;19934;-77
2024/01/08 12:44:28;;;;;;;;;;;1.50;77.50;;;;;;5120133;27;19927;-77
2024/01/08 12:46:54;;;;;;;;;;;1.30;79.70;;;;;;5122855;27;19996;-76
2024/01/08 12:49:20;;;;;;;;;;;1.40;81.00;;;;;;5107413;27;19935;-76
2024/01/08 12:51:45;;;;;;;;;;;1.40;77.20;;;;;;5105322;27;19923;-76
2024/01/08 12:54:14;;;;;;;;;;;1.30;78.30;;;;;;5142229;27;20700;-76
2024/01/08 12:56:41;;;;;;;;;;;1.50;76.70;;;;;;5121465;27;19935;-77
2024/01/08 12:59:07;;;;;;;;;;;1.30;75.70;;;;;;5110344;27;19934;-76
2024/01/08 13:01:33;;;;;;;;;;;1.30;73.10;;;;;;5124093;27;19939;-76
2024/01/08 13:04:00;;;;;;;;;;;2.00;77.10;;;;;;5111077;27;19927;-77
2024/01/08 13:06:26;;;;;;;;;;;1.20;77.70;;;;;;5122604;27;19928;-76
2024/01/08 13:08:53;;;;;;;;;;;1.20;76.80;;;;;;5123017;27;19927;-77
2024/01/08 13:11:19;;;;;;;;;;;1.20;76.70;;;;;;5128215;27;20018;-76
2024/01/08 13:13:46;;;;;;;;;;;1.30;79.10;;;;;;5145726;27;19931;-76
2024/01/08 13:16:12;;;;;;;;;;;1.20;75.00;;;;;;5127981;27;20397;-76
2024/01/08 13:18:37;;;;;;;;;;;1.20;72.40;;;;;;5147337;27;20321;-76
2024/01/08 13:21:03;;;;;;;;;;;1.20;73.50;;;;;;5125558;27;19934;-76
2024/01/08 13:23:29;;;;;;;;;;;1.30;73.70;;;;;;5127887;27;20548;-76
2024/01/08 13:25:55;;;;;;;;;;;2.30;71.60;;;;;;5125558;27;19927;-76
2024/01/08 13:28:24;;;;;;;;;;;1.30;69.80;;;;;;5148284;27;19923;-76
2024/01/08 13:30:49;;;;;;;;;;;1.30;67.60;;;;;;5145506;27;19934;-76
2024/01/08 13:33:15;;;;;;;;;;;1.40;71.20;;;;;;5126510;27;20666;-79
2024/01/08 13:35:41;;;;;;;;;;;1.30;70.90;;;;;;5110771;27;19923;-80
2024/01/08 13:38:06;;;;;;;;;;;2.80;73.40;;;;;;5110418;27;20369;-80
2024/01/08 13:40:32;;;;;;;;;;;2.80;74.00;;;;;;5111933;27;19927;-81
2024/01/08 13:42:58;;;;;;;;;;;1.00;73.60;;;;;;5130382;27;19970;-81
2024/01/08 13:45:23;;;;;;;;;;;0.90;74.80;;;;;;5128329;27;20425;-80
2024/01/08 13:47:50;;;;;;;;;;;1.80;73.90;;;;;;5147713;27;19927;-80
2024/01/08 13:50:18;;;;;;;;;;;0.70;76.70;;;;;;5109833;27;19930;-79
2024/01/08 13:52:44;;;;;;;;;;;0.70;76.20;;;;;;5127892;27;19937;-78
2024/01/08 13:55:10;;;;;;;;;;;0.90;76.50;;;;;;5126607;27;19927;-78
2024/01/08 13:57:39;;;;;;;;;;;0.60;76.60;;;;;;5121284;27;20513;-78
2024/01/08 14:00:05;;;;;;;;;;;1.20;75.30;;;;;;5143463;27;19931;-78
2024/01/08 14:02:32;;;;;;;;;;;0.40;77.50;;;;;;5110740;27;19923;-77
2024/01/08 14:04:57;;;;;;;;;;;0.30;77.80;;;;;;5129115;27;19927;-77
2024/01/08 14:07:29;;;;;;;;;;;0.30;77.40;;;;;;5145054;27;19948;-77
2024/01/08 14:09:55;;;;;;;;;;;0.20;77.80;;;;;;5110724;27;19923;-88
2024/01/08 14:12:20;;;;;;;;;;;1.90;80.30;;;;;;5125836;27;19927;-75
2024/01/08 14:14:46;;;;;;;;;;;1.70;81.00;;;;;;5126795;27;19942;-75
2024/01/08 14:17:12;;;;;;;;;;;0.70;81.30;;;;;;5127968;27;20360;-75
2024/01/08 14:19:37;;;;;;;;;;;0.10;79.60;;;;;;5128626;27;19930;-76
2024/01/08 14:22:03;;;;;;;;;;;0.00;81.60;;;;;;5134369;27;20114;-75
2024/01/08 14:24:29;;;;;;;;;;;0.00;79.80;;;;;;5127905;27;20249;-75